Time;durP1;ratioP1;P1;durP2;ratioP2;P2;SDS_P1;SDS_P2;PMS_P1;PMS_P2;Temp;Humidity;BMP_temperature;BMP_pressure;BME280_temperature;BME280_humidity;BME280_pressure;Samples;Min_cycle;Max_cycle;Signal;HPM_P1;HPM_P2
2022/08/03 00:01:37;;;;;;;3.80;3.50;;;28.20;44.70;;;;;;4983140;28;20190;-48
2022/08/03 00:04:04;;;;;;;4.30;3.30;;;28.20;44.80;;;;;;4982378;28;20194;-48
2022/08/03 00:06:30;;;;;;;5.40;3.80;;;28.20;44.70;;;;;;4989549;28;20446;-48
2022/08/03 00:08:56;;;;;;;3.43;3.23;;;28.10;44.70;;;;;;4979002;28;20569;-54
2022/08/03 00:11:21;;;;;;;5.10;3.73;;;28.20;44.70;;;;;;4983917;28;20191;-49
2022/08/03 00:13:47;;;;;;;3.77;3.53;;;28.10;44.60;;;;;;4983373;28;20453;-47
2022/08/03 00:16:13;;;;;;;3.77;3.47;;;28.10;44.50;;;;;;4989975;28;20187;-49
2022/08/03 00:18:38;;;;;;;3.37;3.17;;;28.00;44.60;;;;;;4988599;28;20293;-48
2022/08/03 00:21:04;;;;;;;5.93;3.80;;;28.00;45.00;;;;;;4980969;28;20198;-49
2022/08/03 00:23:30;;;;;;;3.03;2.83;;;28.00;45.00;;;;;;4986406;28;20209;-48
2022/08/03 00:25:56;;;;;;;3.80;3.50;;;28.00;45.00;;;;;;4986028;28;20441;-49
2022/08/03 00:28:21;;;;;;;4.17;3.87;;;28.00;44.90;;;;;;4988918;28;20244;-48
2022/08/03 00:30:47;;;;;;;3.73;3.43;;;27.90;45.10;;;;;;4986656;28;20551;-49
2022/08/03 00:33:13;;;;;;;4.87;4.57;;;27.90;45.20;;;;;;4987044;28;20195;-49
2022/08/03 00:35:39;;;;;;;3.90;3.60;;;27.80;45.40;;;;;;4988690;28;20676;-48
2022/08/03 00:38:05;;;;;;;3.30;3.10;;;27.60;45.90;;;;;;4987522;28;20469;-49
2022/08/03 00:40:31;;;;;;;4.17;3.77;;;27.50;46.20;;;;;;4979469;28;20195;-52
2022/08/03 00:42:58;;;;;;;5.17;4.30;;;27.50;46.30;;;;;;4984227;28;20826;-48
2022/08/03 00:45:30;;;;;;;4.23;3.93;;;27.60;46.00;;;;;;4988010;28;20496;-49
2022/08/03 00:47:56;;;;;;;4.60;4.20;;;27.60;45.90;;;;;;4984777;28;20890;-48
2022/08/03 00:50:23;;;;;;;3.10;2.90;;;27.60;45.70;;;;;;4987712;28;20767;-49
2022/08/03 00:52:52;;;;;;;4.00;3.50;;;27.60;45.90;;;;;;4984958;28;20444;-49
2022/08/03 00:55:17;;;;;;;3.43;3.23;;;27.70;45.80;;;;;;4988074;28;20453;-48
2022/08/03 00:57:43;;;;;;;4.57;3.80;;;27.70;45.70;;;;;;4983922;28;20466;-50
2022/08/03 01:00:11;;;;;;;4.10;3.50;;;27.70;45.60;;;;;;4984791;28;20213;-48
2022/08/03 01:02:38;;;;;;;4.30;3.93;;;27.70;45.60;;;;;;4983926;28;20441;-47
2022/08/03 01:05:04;;;;;;;4.33;3.80;;;27.70;45.70;;;;;;4983589;28;21145;-48
2022/08/03 01:07:59;;;;;;;3.83;3.53;;;27.70;45.70;;;;;;4981443;28;20494;-48
2022/08/03 01:10:32;;;;;;;3.20;3.00;;;27.80;45.80;;;;;;4976635;28;20195;-50
2022/08/03 01:13:26;;;;;;;3.87;3.47;;;27.70;45.60;;;;;;4984828;28;20488;-50
2022/08/03 01:15:56;;;;;;;3.00;2.80;;;27.70;45.30;;;;;;4976747;28;20878;-49
2022/08/03 01:18:37;;;;;;;3.97;3.57;;;27.60;45.60;;;;;;4981944;28;20512;-51
2022/08/03 01:21:10;;;;;;;3.40;3.10;;;27.50;45.90;;;;;;4976714;28;20527;-49
2022/08/03 01:23:51;;;;;;;3.40;3.10;;;27.50;45.90;;;;;;4978157;28;20939;-47
2022/08/03 01:26:22;;;;;;;5.43;3.40;;;27.50;45.70;;;;;;4983430;28;20815;-50
2022/08/03 01:29:17;;;;;;;3.73;3.43;;;27.50;46.00;;;;;;4984580;28;20811;-47
2022/08/03 01:31:57;;;;;;;3.57;3.27;;;27.40;46.00;;;;;;4985511;28;20461;-49
2022/08/03 01:34:27;;;;;;;3.83;3.50;;;27.30;46.30;;;;;;4982487;28;20564;-49
2022/08/03 01:36:56;;;;;;;3.87;3.57;;;27.20;46.40;;;;;;4980132;28;20449;-47
2022/08/03 01:39:24;;;;;;;4.13;3.70;;;27.00;46.90;;;;;;4979720;28;20510;-48
2022/08/03 01:41:58;;;;;;;3.67;3.37;;;27.00;47.10;;;;;;4981600;28;20446;-47
2022/08/03 01:44:26;;;;;;;4.03;3.73;;;26.70;47.60;;;;;;4978591;28;20449;-48
2022/08/03 01:46:53;;;;;;;3.70;3.40;;;26.60;47.80;;;;;;4982725;28;20466;-47
2022/08/03 01:49:18;;;;;;;4.03;3.73;;;26.70;47.80;;;;;;4982998;28;20814;-47
2022/08/03 01:51:47;;;;;;;3.70;3.40;;;26.90;47.50;;;;;;4983625;28;20445;-46
2022/08/03 01:54:13;;;;;;;3.10;2.87;;;26.90;47.10;;;;;;4975624;28;20198;-49
2022/08/03 01:56:41;;;;;;;4.20;3.87;;;27.00;47.00;;;;;;4976432;28;20792;-47
2022/08/03 01:59:08;;;;;;;4.30;3.27;;;27.00;46.90;;;;;;4986413;28;20457;-49
2022/08/03 02:01:36;;;;;;;3.80;3.43;;;27.10;46.80;;;;;;4981863;28;20457;-48
2022/08/03 02:04:03;;;;;;;3.57;3.27;;;27.10;46.60;;;;;;4983591;28;20484;-47
2022/08/03 02:06:32;;;;;;;3.77;3.47;;;27.10;46.90;;;;;;4986121;28;20500;-48
2022/08/03 02:09:00;;;;;;;3.80;3.50;;;27.10;46.80;;;;;;4979212;28;20447;-49
2022/08/03 02:11:30;;;;;;;4.10;3.77;;;27.10;46.60;;;;;;4979767;28;20450;-50
2022/08/03 02:13:58;;;;;;;3.80;3.50;;;27.10;46.70;;;;;;4983091;28;20447;-45
2022/08/03 02:16:25;;;;;;;3.80;3.50;;;27.10;46.80;;;;;;4981397;28;20445;-51
2022/08/03 02:18:52;;;;;;;5.30;3.50;;;26.90;47.00;;;;;;4981632;28;20450;-49
2022/08/03 02:21:19;;;;;;;3.60;3.40;;;26.70;47.40;;;;;;4987138;28;20468;-48
2022/08/03 02:23:44;;;;;;;4.03;3.30;;;26.60;48.00;;;;;;4985930;28;20811;-51
2022/08/03 02:26:16;;;;;;;6.00;3.50;;;26.60;47.90;;;;;;4982915;28;20450;-47
2022/08/03 02:28:46;;;;;;;4.30;4.00;;;26.70;47.60;;;;;;4986471;28;20224;-47
2022/08/03 02:31:19;;;;;;;4.10;3.80;;;26.80;47.40;;;;;;4974902;28;20446;-46
2022/08/03 02:34:01;;;;;;;3.90;3.60;;;26.70;47.50;;;;;;4981268;28;20586;-47
2022/08/03 02:36:29;;;;;;;3.90;3.50;;;26.70;47.50;;;;;;4980931;28;20439;-46
2022/08/03 02:38:58;;;;;;;3.63;3.43;;;26.70;47.70;;;;;;4982684;28;20523;-48
2022/08/03 02:41:29;;;;;;;4.50;4.20;;;26.60;47.90;;;;;;4983409;28;20438;-47
2022/08/03 02:43:58;;;;;;;3.70;3.40;;;26.70;47.70;;;;;;4977324;28;20453;-47
2022/08/03 02:46:30;;;;;;;3.63;3.43;;;26.70;47.50;;;;;;4988290;28;20504;-47
2022/08/03 02:48:57;;;;;;;4.30;4.00;;;26.70;47.30;;;;;;4986481;28;20536;-46
2022/08/03 02:51:26;;;;;;;3.63;3.33;;;26.80;47.40;;;;;;4988029;28;20888;-46
2022/08/03 02:53:55;;;;;;;4.90;3.60;;;26.80;47.20;;;;;;4986810;28;20925;-47
2022/08/03 02:56:22;;;;;;;3.60;3.30;;;26.80;47.20;;;;;;4985864;28;20858;-47
2022/08/03 02:58:49;;;;;;;4.23;3.93;;;26.70;47.40;;;;;;4981930;28;20529;-47
2022/08/03 03:01:15;;;;;;;3.70;3.40;;;26.80;47.50;;;;;;4982800;28;20460;-51
2022/08/03 03:03:41;;;;;;;4.07;3.77;;;26.80;47.50;;;;;;4981621;28;20437;-46
2022/08/03 03:06:09;;;;;;;3.10;2.90;;;26.80;47.60;;;;;;4974485;28;20457;-48
2022/08/03 03:08:36;;;;;;;3.83;3.53;;;26.70;47.40;;;;;;4986050;28;20226;-48
2022/08/03 03:11:02;;;;;;;5.33;3.80;;;26.40;47.90;;;;;;4982588;28;20933;-47
2022/08/03 03:13:29;;;;;;;3.53;3.33;;;25.60;49.90;;;;;;4987667;28;20438;-50
2022/08/03 03:15:58;;;;;;;3.40;3.20;;;25.60;50.20;;;;;;4981467;28;20540;-49
2022/08/03 03:18:26;;;;;;;5.90;3.50;;;25.80;49.80;;;;;;4988512;28;20435;-48
2022/08/03 03:20:53;;;;;;;3.70;3.40;;;26.00;49.50;;;;;;4986805;28;20453;-46
2022/08/03 03:23:21;;;;;;;4.30;4.00;;;26.10;48.90;;;;;;4981248;28;20799;-48
2022/08/03 03:25:48;;;;;;;3.77;3.50;;;26.30;48.60;;;;;;4984582;28;20536;-48
2022/08/03 03:28:14;;;;;;;4.43;4.03;;;26.20;48.50;;;;;;4981411;28;20500;-48
2022/08/03 03:30:39;;;;;;;3.50;3.30;;;26.30;48.60;;;;;;4983825;28;20878;-48
2022/08/03 03:33:06;;;;;;;5.53;4.10;;;26.30;48.60;;;;;;4982128;28;20533;-50
2022/08/03 03:35:33;;;;;;;4.07;3.77;;;26.40;48.40;;;;;;4981808;28;20238;-47
2022/08/03 03:37:59;;;;;;;3.40;3.10;;;26.40;48.40;;;;;;4983923;28;20448;-48
2022/08/03 03:40:25;;;;;;;4.17;3.97;;;26.40;48.10;;;;;;4987965;28;20445;-50
2022/08/03 03:42:51;;;;;;;3.67;3.47;;;26.50;48.10;;;;;;4987800;28;20448;-47
2022/08/03 03:45:17;;;;;;;5.10;3.80;;;26.50;48.10;;;;;;4985469;28;20441;-47
2022/08/03 03:47:43;;;;;;;3.80;3.60;;;26.50;48.00;;;;;;4984539;28;20230;-50
2022/08/03 03:50:09;;;;;;;3.83;3.43;;;26.50;48.00;;;;;;4976620;28;20481;-50
2022/08/03 03:52:35;;;;;;;3.73;3.40;;;26.40;47.90;;;;;;4970959;28;20317;-46
2022/08/03 03:55:01;;;;;;;3.77;3.47;;;26.40;48.00;;;;;;4981493;28;20449;-50
2022/08/03 03:57:27;;;;;;;4.03;3.63;;;26.30;47.90;;;;;;4978400;28;20449;-48
2022/08/03 03:59:52;;;;;;;4.13;3.83;;;26.30;48.20;;;;;;4977641;28;20250;-46
2022/08/03 04:02:18;;;;;;;3.43;3.20;;;26.20;48.60;;;;;;4979477;28;20207;-52
2022/08/03 04:13:11;;;;;;;5.50;4.30;;;25.60;49.90;;;;;;4980151;28;20492;-46
2022/08/03 04:15:38;;;;;;;4.27;3.90;;;25.70;49.90;;;;;;4978984;28;20462;-48
2022/08/03 04:18:06;;;;;;;5.00;4.50;;;25.80;49.70;;;;;;4978133;28;20944;-47
2022/08/03 04:20:35;;;;;;;3.83;3.53;;;25.80;49.40;;;;;;4979738;28;20440;-48
2022/08/03 04:23:02;;;;;;;4.57;4.17;;;25.90;49.30;;;;;;4980494;28;20484;-48
2022/08/03 04:25:32;;;;;;;3.90;3.60;;;25.80;49.40;;;;;;4976411;28;20479;-50
2022/08/03 04:28:00;;;;;;;4.10;3.80;;;25.80;49.40;;;;;;4978401;28;20498;-47
2022/08/03 04:30:30;;;;;;;3.80;3.50;;;25.80;49.40;;;;;;4986272;28;20445;-48
2022/08/03 04:32:57;;;;;;;5.07;4.20;;;25.90;49.60;;;;;;4981310;28;20848;-47
2022/08/03 04:35:28;;;;;;;3.93;3.63;;;25.90;49.30;;;;;;4978681;28;20445;-50
2022/08/03 04:37:55;;;;;;;4.50;4.20;;;26.00;49.30;;;;;;4978918;28;22259;-48
2022/08/03 04:40:32;;;;;;;4.43;4.03;;;26.10;49.10;;;;;;4983570;28;20454;-48
2022/08/03 04:42:59;;;;;;;5.40;4.40;;;26.10;49.00;;;;;;4981005;28;20458;-49
2022/08/03 04:45:26;;;;;;;4.40;4.00;;;26.00;49.20;;;;;;4978553;28;20439;-50
2022/08/03 04:47:53;;;;;;;4.37;4.07;;;26.00;49.20;;;;;;4976917;28;20544;-47
2022/08/03 04:50:20;;;;;;;4.37;3.90;;;26.10;49.10;;;;;;4972999;28;20591;-47
2022/08/03 04:52:45;;;;;;;3.60;3.30;;;25.70;49.70;;;;;;4977871;28;20528;-46
2022/08/03 04:55:11;;;;;;;4.30;4.00;;;25.30;50.80;;;;;;4979293;28;20447;-48
2022/08/03 04:57:37;;;;;;;4.60;4.20;;;24.90;52.00;;;;;;4978372;28;20210;-46
2022/08/03 05:00:04;;;;;;;5.43;4.17;;;24.70;52.40;;;;;;4981913;28;20265;-46
2022/08/03 05:02:30;;;;;;;3.97;3.67;;;24.30;53.50;;;;;;4979828;28;20226;-49
2022/08/03 05:04:57;;;;;;;4.73;4.20;;;24.40;53.20;;;;;;4977875;28;20445;-46
2022/08/03 05:07:23;;;;;;;4.73;4.00;;;24.70;52.80;;;;;;4980221;28;20474;-49
2022/08/03 05:09:48;;;;;;;4.20;3.57;;;25.00;52.20;;;;;;4979555;28;21073;-49
2022/08/03 05:12:14;;;;;;;4.10;3.80;;;24.70;52.70;;;;;;4979428;28;20206;-49
2022/08/03 05:14:39;;;;;;;6.17;3.97;;;24.60;53.30;;;;;;4986379;28;20206;-47
2022/08/03 05:17:06;;;;;;;6.00;3.87;;;24.80;53.40;;;;;;4978026;28;20200;-47
2022/08/03 05:19:31;;;;;;;6.57;4.33;;;25.10;52.00;;;;;;4978154;28;20661;-47
2022/08/03 05:21:57;;;;;;;4.77;4.37;;;25.40;51.40;;;;;;4979567;28;20448;-46
2022/08/03 05:24:23;;;;;;;3.67;3.37;;;25.60;51.00;;;;;;4987769;28;20202;-46
2022/08/03 05:26:49;;;;;;;4.43;4.10;;;25.70;50.60;;;;;;4973557;28;20697;-47
2022/08/03 05:29:14;;;;;;;3.80;3.50;;;25.80;50.40;;;;;;4978045;28;20190;-47
2022/08/03 05:31:40;;;;;;;3.83;3.50;;;25.90;50.40;;;;;;4988913;28;20272;-51
2022/08/03 05:34:06;;;;;;;4.97;4.30;;;25.80;50.60;;;;;;4980067;28;20651;-49
2022/08/03 05:36:31;;;;;;;4.30;3.90;;;25.70;50.80;;;;;;4990868;28;20197;-48
2022/08/03 05:38:57;;;;;;;5.80;4.63;;;25.40;51.50;;;;;;4985586;28;20195;-47
2022/08/03 05:41:22;;;;;;;4.83;4.40;;;25.50;51.60;;;;;;4981179;28;20203;-48
2022/08/03 05:43:49;;;;;;;4.90;4.50;;;25.20;52.30;;;;;;4989399;28;20603;-47
2022/08/03 05:46:14;;;;;;;4.43;4.03;;;24.80;53.20;;;;;;4978072;28;20187;-51
2022/08/03 05:48:41;;;;;;;4.27;3.87;;;24.90;53.10;;;;;;4983876;28;20501;-49
2022/08/03 05:54:04;;;;;;;4.70;4.30;;;25.60;51.80;;;;;;5059502;22;20497;-46
2022/08/03 05:56:29;;;;;;;5.10;4.70;;;25.80;51.10;;;;;;5028249;28;20439;-44
2022/08/03 05:58:55;;;;;;;5.37;4.60;;;25.80;51.10;;;;;;5027873;28;20583;-44
2022/08/03 06:01:21;;;;;;;4.77;4.37;;;25.90;51.00;;;;;;5021917;28;20224;-43
2022/08/03 06:03:48;;;;;;;6.50;4.20;;;25.90;50.90;;;;;;5026789;28;20908;-46
2022/08/03 06:06:14;;;;;;;4.30;3.90;;;26.00;50.80;;;;;;5025825;28;20200;-46
2022/08/03 06:08:40;;;;;;;7.83;4.20;;;25.40;52.00;;;;;;5026777;28;20966;-44
2022/08/03 06:11:07;;;;;;;4.30;4.00;;;24.90;53.40;;;;;;5027797;28;20451;-49
2022/08/03 06:13:33;;;;;;;5.10;4.70;;;24.80;53.80;;;;;;5021984;28;20803;-47
2022/08/03 06:15:59;;;;;;;4.47;4.07;;;24.70;54.00;;;;;;5026068;28;20499;-46
2022/08/03 06:18:24;;;;;;;4.47;4.07;;;24.50;54.60;;;;;;5018856;28;20489;-47
2022/08/03 06:20:51;;;;;;;5.13;4.73;;;24.30;55.40;;;;;;5022966;28;20242;-45
2022/08/03 06:23:16;;;;;;;4.60;4.00;;;24.50;55.20;;;;;;5022182;28;20205;-45
2022/08/03 06:25:42;;;;;;;7.10;4.40;;;24.70;54.90;;;;;;5028375;28;20444;-45
2022/08/03 06:28:08;;;;;;;4.53;4.13;;;25.10;54.20;;;;;;5024025;28;20217;-46
2022/08/03 06:30:34;;;;;;;4.87;4.17;;;25.30;53.70;;;;;;5025204;28;20229;-47
2022/08/03 06:33:00;;;;;;;4.03;3.63;;;25.50;53.40;;;;;;5019847;28;20803;-46
2022/08/03 06:35:26;;;;;;;4.13;3.70;;;25.60;53.20;;;;;;5026398;28;20569;-45
2022/08/03 06:37:52;;;;;;;3.67;3.40;;;25.90;52.60;;;;;;5028128;28;20304;-47
2022/08/03 06:40:31;;;;;;;3.57;3.23;;;26.10;52.20;;;;;;5014099;28;20460;-45
2022/08/03 06:42:57;;;;;;;3.90;3.50;;;26.30;51.70;;;;;;5033521;28;20451;-45
2022/08/03 06:45:23;;;;;;;5.33;4.40;;;26.60;51.10;;;;;;5030886;28;20435;-48
2022/08/03 06:47:59;;;;;;;3.90;3.60;;;26.70;50.50;;;;;;5027343;28;20986;-44
2022/08/03 06:50:25;;;;;;;3.80;3.50;;;26.90;50.20;;;;;;5030077;28;20450;-45
2022/08/03 06:52:50;;;;;;;3.93;3.63;;;27.00;50.10;;;;;;5028871;28;20471;-45
2022/08/03 06:55:16;;;;;;;3.73;3.43;;;27.20;49.90;;;;;;5027393;28;20284;-44
2022/08/03 06:57:42;;;;;;;3.77;3.57;;;27.30;49.50;;;;;;5030914;28;20198;-45
2022/08/03 07:00:08;;;;;;;3.50;3.13;;;27.20;49.60;;;;;;5031230;28;20448;-44
2022/08/03 07:02:34;;;;;;;4.60;3.10;;;27.00;50.10;;;;;;5026565;28;20193;-45
2022/08/03 07:05:00;;;;;;;3.43;3.20;;;27.00;50.20;;;;;;5024204;28;20485;-44
2022/08/03 07:07:25;;;;;;;3.10;2.80;;;27.20;50.00;;;;;;5026650;28;20236;-49
2022/08/03 07:09:51;;;;;;;3.37;3.10;;;27.60;49.30;;;;;;5028436;28;20658;-49
2022/08/03 07:12:17;;;;;;;3.50;3.20;;;27.80;48.80;;;;;;5025490;28;20557;-45
2022/08/03 07:14:42;;;;;;;6.40;3.70;;;28.00;48.50;;;;;;5021480;28;20227;-47
2022/08/03 07:17:08;;;;;;;6.50;3.73;;;28.20;48.00;;;;;;5025653;28;20641;-45
2022/08/03 07:19:34;;;;;;;3.83;3.53;;;28.50;47.50;;;;;;5024162;28;20193;-45
2022/08/03 07:21:59;;;;;;;4.77;3.50;;;28.60;47.50;;;;;;5030308;28;20196;-50
2022/08/03 07:24:25;;;;;;;3.50;3.30;;;28.70;47.20;;;;;;5030860;28;20690;-49
2022/08/03 07:26:50;;;;;;;4.00;3.13;;;28.90;46.90;;;;;;5031566;28;20269;-50
2022/08/03 07:29:16;;;;;;;3.57;3.23;;;29.00;46.90;;;;;;5022322;28;20566;-45
2022/08/03 07:31:42;;;;;;;3.23;2.83;;;29.10;46.40;;;;;;5029620;28;20185;-45
2022/08/03 07:34:07;;;;;;;3.20;2.93;;;29.00;46.40;;;;;;5019639;28;20203;-45
2022/08/03 07:36:33;;;;;;;3.00;2.80;;;29.20;46.10;;;;;;5030894;28;20276;-47
2022/08/03 07:38:59;;;;;;;3.10;2.80;;;29.30;46.00;;;;;;5032963;28;20217;-48
2022/08/03 07:41:24;;;;;;;3.27;2.97;;;29.40;45.50;;;;;;5026408;28;20688;-47
2022/08/03 07:43:50;;;;;;;2.70;2.50;;;29.70;45.20;;;;;;5030286;28;20267;-45
2022/08/03 07:46:15;;;;;;;7.50;2.93;;;29.90;45.00;;;;;;5031593;28;20185;-45
2022/08/03 07:48:41;;;;;;;2.90;2.70;;;30.00;44.70;;;;;;5030948;28;20280;-45
2022/08/03 07:51:07;;;;;;;3.13;2.80;;;30.10;44.30;;;;;;5019544;28;20566;-45
2022/08/03 07:53:32;;;;;;;3.10;2.90;;;30.30;43.80;;;;;;5029243;28;20232;-46
2022/08/03 07:55:58;;;;;;;3.43;2.80;;;30.40;43.80;;;;;;5030531;28;20198;-48
2022/08/03 07:58:23;;;;;;;3.30;3.00;;;30.50;43.40;;;;;;5027773;28;20618;-45
2022/08/03 08:00:51;;;;;;;3.37;2.63;;;30.50;43.40;;;;;;5032377;28;20247;-45
2022/08/03 08:03:17;;;;;;;2.80;2.60;;;30.70;43.40;;;;;;5025277;28;20198;-45
2022/08/03 08:05:43;;;;;;;2.53;2.33;;;30.70;42.80;;;;;;5018604;28;20817;-46
2022/08/03 08:08:09;;;;;;;2.20;2.10;;;30.60;42.40;;;;;;5029130;28;20479;-45
2022/08/03 08:10:35;;;;;;;2.33;2.10;;;30.90;42.50;;;;;;5017545;28;20264;-47
2022/08/03 08:13:01;;;;;;;2.40;2.20;;;31.10;42.30;;;;;;5025316;28;20193;-49
2022/08/03 08:15:27;;;;;;;2.80;2.47;;;31.30;42.00;;;;;;5030458;28;20201;-45
2022/08/03 08:17:56;;;;;;;6.23;2.40;;;31.50;41.60;;;;;;5023595;28;20448;-49
2022/08/03 08:20:33;;;;;;;2.57;2.20;;;31.70;41.20;;;;;;5028577;28;20228;-48
2022/08/03 08:23:00;;;;;;;2.93;2.70;;;31.90;40.90;;;;;;5028185;28;20809;-50
2022/08/03 08:25:26;;;;;;;2.73;2.57;;;32.00;41.10;;;;;;5031339;28;20950;-49
2022/08/03 08:27:52;;;;;;;2.23;2.13;;;32.10;40.60;;;;;;5030534;28;20502;-49
2022/08/03 08:30:22;;;;;;;3.37;2.47;;;32.20;40.40;;;;;;5030688;28;20515;-49
2022/08/03 08:32:49;;;;;;;2.90;2.70;;;32.20;40.10;;;;;;5027386;28;20440;-47
2022/08/03 08:35:15;;;;;;;3.00;2.07;;;32.20;39.90;;;;;;5015084;28;20425;-45
2022/08/03 08:37:42;;;;;;;2.83;2.53;;;32.30;39.90;;;;;;5025955;28;20993;-47
2022/08/03 08:40:09;;;;;;;3.10;2.10;;;32.40;39.70;;;;;;5028649;28;20447;-47
2022/08/03 08:42:39;;;;;;;4.27;2.70;;;32.60;39.60;;;;;;5031117;28;20447;-48
2022/08/03 08:45:07;;;;;;;2.60;2.40;;;32.60;38.90;;;;;;5023801;28;20459;-46
2022/08/03 08:47:35;;;;;;;2.47;2.37;;;32.70;39.20;;;;;;5027965;28;20807;-46
2022/08/03 08:50:02;;;;;;;2.70;2.50;;;32.80;38.40;;;;;;5023340;28;20448;-45
2022/08/03 08:52:29;;;;;;;1.60;1.50;;;32.90;38.20;;;;;;5022725;28;21068;-48
2022/08/03 08:55:03;;;;;;;2.73;2.27;;;33.00;37.90;;;;;;5027795;28;20452;-45
2022/08/03 08:57:36;;;;;;;2.10;2.00;;;33.10;37.90;;;;;;5024429;28;20440;-48
2022/08/03 09:00:08;;;;;;;2.33;2.23;;;33.10;38.30;;;;;;5023535;28;20480;-46
2022/08/03 09:02:34;;;;;;;1.77;1.63;;;33.20;37.80;;;;;;5019421;28;20453;-48
2022/08/03 09:05:00;;;;;;;2.27;2.17;;;33.00;37.70;;;;;;5022816;28;20539;-45
2022/08/03 09:07:27;;;;;;;2.13;1.93;;;33.30;37.40;;;;;;5026389;28;20487;-47
2022/08/03 09:09:53;;;;;;;1.80;1.70;;;33.40;36.80;;;;;;5026287;28;20272;-45
2022/08/03 09:12:18;;;;;;;2.00;1.90;;;33.60;36.30;;;;;;5030473;28;20462;-46
2022/08/03 09:14:44;;;;;;;2.17;2.07;;;33.80;35.70;;;;;;5020334;28;20215;-45
2022/08/03 09:17:10;;;;;;;4.67;1.73;;;34.00;35.40;;;;;;5024883;28;20197;-48
2022/08/03 09:19:35;;;;;;;1.90;1.80;;;34.10;35.30;;;;;;5025398;28;20216;-49
2022/08/03 09:22:11;;;;;;;2.70;2.00;;;34.10;35.20;;;;;;5024548;28;20621;-44
2022/08/03 09:24:54;;;;;;;1.60;1.50;;;34.20;34.50;;;;;;5024907;28;20259;-47
2022/08/03 09:27:19;;;;;;;1.77;1.50;;;34.30;34.80;;;;;;5017631;28;20511;-44
2022/08/03 09:29:50;;;;;;;1.60;1.50;;;34.20;32.30;;;;;;5023594;28;20444;-49
2022/08/03 09:32:22;;;;;;;2.10;1.67;;;34.40;31.80;;;;;;5024375;28;20209;-46
2022/08/03 09:34:49;;;;;;;2.10;2.00;;;34.50;32.00;;;;;;5024347;28;20451;-45
2022/08/03 09:37:17;;;;;;;4.93;1.87;;;34.80;32.80;;;;;;5027419;28;20921;-46
2022/08/03 09:39:44;;;;;;;1.97;1.60;;;35.00;31.80;;;;;;5026388;28;21005;-47
2022/08/03 09:42:16;;;;;;;3.93;1.67;;;35.00;31.90;;;;;;5019387;28;20845;-48
2022/08/03 09:44:44;;;;;;;1.60;1.50;;;35.00;31.50;;;;;;5020754;28;20517;-49
2022/08/03 09:47:11;;;;;;;2.33;2.23;;;35.40;31.00;;;;;;5020132;28;20498;-44
2022/08/03 09:49:40;;;;;;;2.40;2.20;;;35.60;30.70;;;;;;5025792;28;20447;-44
2022/08/03 09:52:18;;;;;;;1.90;1.80;;;35.60;31.10;;;;;;5027667;28;20537;-44
2022/08/03 09:54:50;;;;;;;2.00;1.80;;;35.90;30.60;;;;;;5021960;28;20474;-45
2022/08/03 09:57:22;;;;;;;1.80;1.70;;;36.00;30.80;;;;;;5027280;28;20444;-45
2022/08/03 09:59:48;;;;;;;3.10;2.40;;;36.30;30.10;;;;;;5023419;28;20440;-46
2022/08/03 10:02:22;;;;;;;2.20;2.00;;;36.30;29.20;;;;;;5025571;28;20466;-45
2022/08/03 10:04:49;;;;;;;2.03;1.90;;;36.40;29.50;;;;;;5029531;28;20446;-46
2022/08/03 10:07:15;;;;;;;2.30;1.80;;;36.40;29.60;;;;;;5027272;28;20497;-50
2022/08/03 10:09:53;;;;;;;2.07;1.97;;;36.40;29.20;;;;;;5027526;28;20431;-46
2022/08/03 10:12:20;;;;;;;1.97;1.87;;;36.60;28.30;;;;;;5023164;28;20197;-45
2022/08/03 10:14:46;;;;;;;2.00;1.90;;;36.70;28.40;;;;;;5026263;28;20486;-45
2022/08/03 10:17:12;;;;;;;2.23;2.13;;;37.00;28.20;;;;;;5029822;28;20512;-45
2022/08/03 10:19:38;;;;;;;2.00;1.90;;;36.90;28.30;;;;;;5026090;28;20440;-46
2022/08/03 10:22:17;;;;;;;2.53;2.33;;;37.10;28.50;;;;;;5027706;28;20514;-46
2022/08/03 10:24:53;;;;;;;2.70;2.30;;;37.30;28.90;;;;;;5025647;28;20269;-47
2022/08/03 10:27:21;;;;;;;2.10;2.00;;;37.40;28.30;;;;;;5023800;28;20589;-46
2022/08/03 10:29:53;;;;;;;2.00;1.90;;;37.50;28.10;;;;;;5016912;28;20427;-45
2022/08/03 10:32:30;;;;;;;1.90;1.80;;;37.70;27.60;;;;;;5026910;28;20443;-45
2022/08/03 10:35:22;;;;;;;2.40;2.20;;;37.80;27.40;;;;;;5023517;28;20466;-45
2022/08/03 10:38:09;;;;;;;3.90;2.17;;;37.80;27.40;;;;;;5022066;28;20443;-49
2022/08/03 10:40:36;;;;;;;2.47;2.30;;;37.80;27.60;;;;;;5017902;28;20459;-47
2022/08/03 10:43:08;;;;;;;2.63;2.43;;;37.80;27.10;;;;;;5021922;28;20439;-45
2022/08/03 10:45:39;;;;;;;3.00;2.20;;;37.50;27.20;;;;;;5025624;28;20452;-46
2022/08/03 10:48:06;;;;;;;2.60;2.40;;;37.80;26.80;;;;;;5025500;28;21245;-45
2022/08/03 10:50:32;;;;;;;1.93;1.73;;;37.80;26.90;;;;;;5022529;28;20493;-45
2022/08/03 10:53:00;;;;;;;2.50;2.30;;;38.00;26.80;;;;;;5025960;28;20514;-46
2022/08/03 10:58:36;;;;;;;2.27;2.13;;;38.30;27.10;;;;;;5026556;28;20830;-45
2022/08/03 11:01:09;;;;;;;2.13;2.03;;;38.50;26.30;;;;;;5024885;28;20459;-46
2022/08/03 11:03:58;;;;;;;2.27;2.10;;;38.60;26.90;;;;;;5025032;28;20496;-46
2022/08/03 11:06:25;;;;;;;2.67;2.47;;;38.90;26.60;;;;;;5002070;28;20451;-46
2022/08/03 11:09:09;;;;;;;2.23;2.10;;;38.80;26.20;;;;;;5023516;28;20479;-46
2022/08/03 11:11:37;;;;;;;2.90;2.30;;;38.50;26.60;;;;;;5028502;28;21319;-46
2022/08/03 11:14:19;;;;;;;2.80;2.60;;;38.40;26.80;;;;;;5025017;28;20495;-47
2022/08/03 11:16:48;;;;;;;2.80;2.60;;;38.50;26.30;;;;;;5015510;28;20557;-46
2022/08/03 11:19:22;;;;;;;2.43;2.33;;;38.30;26.50;;;;;;5021763;28;20552;-47
2022/08/03 11:21:51;;;;;;;3.73;2.40;;;38.40;26.80;;;;;;5027500;28;20450;-46
2022/08/03 11:24:35;;;;;;;2.37;2.20;;;38.50;26.80;;;;;;5009395;28;20955;-46
2022/08/03 11:27:19;;;;;;;2.43;2.33;;;39.00;26.50;;;;;;5016740;28;20459;-45
2022/08/03 11:29:58;;;;;;;3.23;2.93;;;39.40;26.00;;;;;;5029410;28;20454;-46
2022/08/03 11:32:39;;;;;;;2.63;2.43;;;39.60;25.70;;;;;;5030234;28;20450;-46
2022/08/03 11:35:08;;;;;;;3.10;2.87;;;39.90;25.40;;;;;;5027088;28;20495;-47
2022/08/03 11:37:33;;;;;;;2.83;2.73;;;40.10;25.20;;;;;;5020649;28;20451;-45
2022/08/03 11:39:59;;;;;;;2.70;2.60;;;40.20;25.10;;;;;;5021567;28;20952;-46
2022/08/03 11:42:25;;;;;;;2.67;2.47;;;40.40;25.00;;;;;;5029031;28;20197;-47
2022/08/03 11:44:54;;;;;;;2.87;2.60;;;40.60;25.00;;;;;;5028636;28;20279;-46
2022/08/03 11:47:21;;;;;;;2.70;2.50;;;40.70;24.90;;;;;;5026551;28;20473;-45
2022/08/03 11:49:48;;;;;;;3.27;2.97;;;40.80;25.10;;;;;;5029822;28;20436;-46
2022/08/03 11:52:15;;;;;;;2.90;2.77;;;40.50;24.30;;;;;;5027691;28;20650;-47
2022/08/03 11:54:42;;;;;;;2.53;2.30;;;40.20;24.80;;;;;;5024931;28;20523;-49
2022/08/03 11:57:07;;;;;;;2.63;2.43;;;39.60;24.90;;;;;;5025850;28;20447;-48
2022/08/03 11:59:35;;;;;;;3.20;2.90;;;39.90;24.90;;;;;;5019486;28;20450;-46
2022/08/03 12:02:11;;;;;;;2.70;2.50;;;40.20;24.60;;;;;;5029227;28;20675;-46
2022/08/03 12:04:59;;;;;;;2.67;2.47;;;40.50;24.20;;;;;;5030329;28;20861;-49
2022/08/03 12:07:28;;;;;;;2.77;2.57;;;40.50;23.90;;;;;;5027240;28;20541;-45
2022/08/03 12:10:13;;;;;;;2.50;2.30;;;40.50;24.00;;;;;;5023362;28;20613;-45
2022/08/03 12:12:41;;;;;;;2.87;2.67;;;40.60;24.40;;;;;;5030362;28;20443;-47
2022/08/03 12:15:08;;;;;;;5.33;3.10;;;40.60;24.50;;;;;;5031480;28;20447;-46
2022/08/03 12:17:39;;;;;;;2.90;2.70;;;40.80;24.10;;;;;;5017984;28;20485;-46
2022/08/03 12:20:06;;;;;;;2.93;2.50;;;40.90;23.70;;;;;;5026433;28;20454;-51
2022/08/03 12:22:34;;;;;;;2.73;2.53;;;41.10;23.70;;;;;;5022069;28;20455;-47
2022/08/03 12:24:59;;;;;;;2.60;2.40;;;41.30;24.00;;;;;;5019452;28;20447;-50
2022/08/03 12:27:28;;;;;;;2.57;2.47;;;41.50;23.80;;;;;;5026199;28;20471;-48
2022/08/03 12:29:56;;;;;;;2.30;2.20;;;41.60;23.50;;;;;;5024022;28;20275;-46
2022/08/03 12:32:22;;;;;;;2.60;2.50;;;41.60;23.30;;;;;;5030122;28;20546;-49
2022/08/03 12:34:48;;;;;;;2.43;2.23;;;41.60;23.10;;;;;;5024692;28;20952;-46
2022/08/03 12:37:19;;;;;;;3.30;2.70;;;41.70;23.20;;;;;;5025999;28;20447;-46
2022/08/03 12:39:53;;;;;;;2.80;2.60;;;41.80;23.00;;;;;;5023886;28;20589;-50
2022/08/03 12:42:18;;;;;;;2.60;2.50;;;41.70;22.00;;;;;;5025280;28;20839;-46
2022/08/03 12:44:45;;;;;;;2.60;2.50;;;41.60;21.90;;;;;;5020815;28;20451;-50
2022/08/03 12:47:11;;;;;;;2.53;2.33;;;41.60;21.70;;;;;;5028788;28;20248;-47
2022/08/03 12:49:47;;;;;;;2.67;2.47;;;41.30;22.00;;;;;;5041832;28;20478;-48
2022/08/03 12:52:14;;;;;;;3.67;2.47;;;41.50;22.30;;;;;;5027029;28;20507;-46
2022/08/03 12:54:39;;;;;;;2.67;2.43;;;41.20;22.30;;;;;;5024660;28;20446;-51
2022/08/03 12:57:09;;;;;;;4.00;2.40;;;41.10;22.80;;;;;;5029920;28;20451;-50
2022/08/03 12:59:41;;;;;;;3.00;2.50;;;41.20;23.30;;;;;;5025028;28;20692;-49
2022/08/03 13:02:13;;;;;;;2.60;2.50;;;41.40;23.00;;;;;;5014343;28;20440;-49
2022/08/03 13:04:38;;;;;;;3.07;2.87;;;41.70;22.90;;;;;;5020285;28;20476;-46
2022/08/03 13:07:07;;;;;;;3.77;2.50;;;41.90;22.50;;;;;;5023109;28;21284;-50
2022/08/03 13:09:48;;;;;;;2.27;2.17;;;41.90;22.50;;;;;;5017799;28;20208;-47